Time;durP1;ratioP1;P1;durP2;ratioP2;P2;SDS_P1;SDS_P2;PMS_P1;PMS_P2;Temp;Humidity;BMP_temperature;BMP_pressure;BME280_temperature;BME280_humidity;BME280_pressure;Samples;Min_cycle;Max_cycle;Signal;HPM_P1;HPM_P2
2022/04/27 00:01:16;;;;;;;15.18;9.60;;;;;;;;;;7320229;19;162145;-15
2022/04/27 00:03:47;;;;;;;14.65;9.20;;;;;;;;;;7334921;19;162393;-15
2022/04/27 00:06:21;;;;;;;15.25;9.77;;;;;;;;;;7335575;19;154096;-14
2022/04/27 00:08:52;;;;;;;15.13;9.77;;;;;;;;;;7336047;19;153672;-16
2022/04/27 00:11:24;;;;;;;15.13;10.00;;;;;;;;;;7336000;19;161804;-16
2022/04/27 00:13:56;;;;;;;12.88;8.82;;;;;;;;;;7331237;19;162425;-16
2022/04/27 00:16:27;;;;;;;14.43;9.53;;;;;;;;;;7335146;19;154239;-17
2022/04/27 00:18:58;;;;;;;12.70;9.05;;;;;;;;;;7322821;19;153557;-14
2022/04/27 00:21:32;;;;;;;13.57;9.05;;;;;;;;;;7313292;19;161812;-15
2022/04/27 00:24:04;;;;;;;13.25;9.55;;;;;;;;;;7312341;19;162478;-17
2022/04/27 00:26:35;;;;;;;13.32;9.13;;;;;;;;;;7313311;19;154249;-16
2022/04/27 00:29:07;;;;;;;12.37;9.03;;;;;;;;;;7272575;19;153940;-13
2022/04/27 00:34:30;;;;;;;12.68;9.07;;;;;;;;;;7314516;19;162429;-12
2022/04/27 00:37:04;;;;;;;13.80;9.55;;;;;;;;;;7334749;19;153993;-12
2022/04/27 00:39:35;;;;;;;10.95;8.23;;;;;;;;;;7334199;19;153825;-13
2022/04/27 00:42:16;;;;;;;13.73;8.77;;;;;;;;;;7332313;19;162029;-12
2022/04/27 00:44:48;;;;;;;12.43;7.80;;;;;;;;;;7332485;19;162698;-12
2022/04/27 00:47:21;;;;;;;11.80;9.35;;;;;;;;;;7331909;19;154199;-12
2022/04/27 00:49:53;;;;;;;11.27;8.73;;;;;;;;;;7330875;19;153498;-13
2022/04/27 00:52:30;;;;;;;11.38;7.78;;;;;;;;;;7335415;19;162197;-14
2022/04/27 00:55:03;;;;;;;12.27;8.25;;;;;;;;;;7335632;19;162420;-21
2022/04/27 00:57:39;;;;;;;11.60;8.73;;;;;;;;;;7331054;19;154081;-14
2022/04/27 01:00:13;;;;;;;12.68;8.90;;;;;;;;;;7328936;19;153534;-13
2022/04/27 01:02:48;;;;;;;13.15;8.93;;;;;;;;;;7329900;19;161988;-13
2022/04/27 01:05:21;;;;;;;12.73;8.65;;;;;;;;;;7333924;19;162400;-14
2022/04/27 01:08:00;;;;;;;12.52;8.05;;;;;;;;;;7329591;19;154070;-19
2022/04/27 01:10:32;;;;;;;9.30;6.47;;;;;;;;;;7329814;19;153624;-12
2022/04/27 01:13:05;;;;;;;9.13;7.33;;;;;;;;;;7327583;19;162165;-14
2022/04/27 01:15:38;;;;;;;10.68;7.57;;;;;;;;;;7331588;19;162386;-13
2022/04/27 01:18:12;;;;;;;16.02;6.82;;;;;;;;;;7331042;19;154172;-13
2022/04/27 01:20:50;;;;;;;9.73;7.47;;;;;;;;;;7330782;19;153666;-13
2022/04/27 01:23:23;;;;;;;8.75;6.25;;;;;;;;;;7330433;19;161862;-14
2022/04/27 01:25:57;;;;;;;15.80;8.07;;;;;;;;;;7330342;19;163585;-13
2022/04/27 01:28:30;;;;;;;11.23;7.28;;;;;;;;;;7329026;19;154057;-14
2022/04/27 01:31:03;;;;;;;8.25;6.70;;;;;;;;;;7330250;19;153699;-14
2022/04/27 01:33:35;;;;;;;10.63;7.38;;;;;;;;;;7327571;19;162067;-14
2022/04/27 01:36:13;;;;;;;9.18;6.05;;;;;;;;;;7330499;19;162695;-13
2022/04/27 01:38:45;;;;;;;9.85;6.20;;;;;;;;;;7331148;19;154053;-13
2022/04/27 01:41:17;;;;;;;9.20;6.68;;;;;;;;;;7331496;19;153758;-18
2022/04/27 01:43:48;;;;;;;12.20;7.47;;;;;;;;;;7329310;19;162097;-13
2022/04/27 01:46:19;;;;;;;9.63;6.97;;;;;;;;;;7330333;19;162416;-14
2022/04/27 01:48:51;;;;;;;12.75;7.60;;;;;;;;;;7328908;19;154408;-13
2022/04/27 01:54:14;;;;;;;11.15;6.75;;;;;;;;;;7328712;19;153629;-13
2022/04/27 01:54:15;;;;;;;7.88;5.97;;;;;;;;;;7333253;19;161769;-13
2022/04/27 01:56:49;;;;;;;11.00;7.07;;;;;;;;;;7328466;19;162455;-12
2022/04/27 01:59:20;;;;;;;7.57;6.13;;;;;;;;;;7329167;19;154202;-13
2022/04/27 02:01:52;;;;;;;10.32;6.50;;;;;;;;;;7329145;19;153743;-14
2022/04/27 02:04:23;;;;;;;10.45;6.38;;;;;;;;;;7329907;19;161857;-13
2022/04/27 02:06:58;;;;;;;9.53;6.20;;;;;;;;;;7328648;19;162744;-13
2022/04/27 02:09:30;;;;;;;8.88;6.20;;;;;;;;;;7326624;19;154352;-14
2022/04/27 02:12:01;;;;;;;7.32;5.72;;;;;;;;;;7328733;19;153878;-14
2022/04/27 02:14:33;;;;;;;7.38;5.90;;;;;;;;;;7328552;19;162130;-13
2022/04/27 02:17:08;;;;;;;7.85;6.07;;;;;;;;;;7328271;19;162878;-13
2022/04/27 02:19:39;;;;;;;8.43;6.70;;;;;;;;;;7328604;19;154451;-13
2022/04/27 02:22:13;;;;;;;9.38;6.95;;;;;;;;;;7328573;19;153503;-13
2022/04/27 02:24:44;;;;;;;8.50;6.50;;;;;;;;;;7328016;19;161831;-13
2022/04/27 02:27:16;;;;;;;7.60;6.35;;;;;;;;;;7329241;19;162381;-13
2022/04/27 02:29:47;;;;;;;6.35;5.55;;;;;;;;;;7326054;19;154112;-13
2022/04/27 02:32:26;;;;;;;7.78;6.40;;;;;;;;;;7327845;19;153702;-13
2022/04/27 02:34:57;;;;;;;6.88;5.65;;;;;;;;;;7327773;19;162217;-13
2022/04/27 02:37:32;;;;;;;7.27;5.47;;;;;;;;;;7327747;19;162867;-13
2022/04/27 02:40:05;;;;;;;7.00;5.90;;;;;;;;;;7328084;19;154129;-13
2022/04/27 02:42:37;;;;;;;7.85;6.15;;;;;;;;;;7328688;19;153668;-14
2022/04/27 02:45:09;;;;;;;8.30;5.60;;;;;;;;;;7330771;19;161693;-15
2022/04/27 02:47:40;;;;;;;8.80;5.80;;;;;;;;;;7330589;19;162435;-13
2022/04/27 02:53:03;;;;;;;10.35;6.47;;;;;;;;;;7330621;19;153552;-13
2022/04/27 02:55:38;;;;;;;6.97;5.50;;;;;;;;;;7329947;19;161911;-12
2022/04/27 02:58:09;;;;;;;6.00;5.38;;;;;;;;;;7330631;19;162685;-14
2022/04/27 03:00:44;;;;;;;8.00;6.07;;;;;;;;;;7330704;19;154103;-13
2022/04/27 03:03:18;;;;;;;6.20;5.28;;;;;;;;;;7336839;19;153641;-13
2022/04/27 03:05:50;;;;;;;5.97;5.20;;;;;;;;;;7336335;19;162035;-13
2022/04/27 03:08:24;;;;;;;7.43;6.05;;;;;;;;;;7337608;19;162445;-14
2022/04/27 03:10:57;;;;;;;6.38;4.78;;;;;;;;;;7337082;19;154429;-13
2022/04/27 03:13:40;;;;;;;;;;;;;;;;;;7337491;19;153936;-13
2022/04/27 03:16:17;;;;;;;11.82;6.20;;;;;;;;;;7336331;19;162118;-13
2022/04/27 03:18:48;;;;;;;5.88;5.28;;;;;;;;;;7332610;19;162478;-14
2022/04/27 03:21:20;;;;;;;7.32;5.28;;;;;;;;;;7333203;19;154367;-13
2022/04/27 03:23:55;;;;;;;6.90;5.07;;;;;;;;;;7332938;19;153788;-13
2022/04/27 03:26:26;;;;;;;8.18;6.18;;;;;;;;;;7333704;19;161880;-13
2022/04/27 03:29:00;;;;;;;7.65;5.18;;;;;;;;;;7332085;19;162626;-13
2022/04/27 03:31:32;;;;;;;5.95;5.35;;;;;;;;;;7332943;19;154141;-13
2022/04/27 03:34:04;;;;;;;6.68;5.72;;;;;;;;;;7330828;19;153623;-13
2022/04/27 03:36:39;;;;;;;6.18;4.90;;;;;;;;;;7335595;19;161900;-13
2022/04/27 03:39:13;;;;;;;6.28;4.80;;;;;;;;;;7332665;19;162524;-13
2022/04/27 03:41:57;;;;;;;6.43;5.47;;;;;;;;;;7332970;19;154080;-12
2022/04/27 03:44:29;;;;;;;6.57;5.28;;;;;;;;;;7332858;19;153512;-12
2022/04/27 03:47:01;;;;;;;5.30;4.80;;;;;;;;;;7332585;19;161920;-13
2022/04/27 03:49:36;;;;;;;6.78;5.15;;;;;;;;;;7331621;19;162494;-12
2022/04/27 03:52:08;;;;;;;5.68;4.97;;;;;;;;;;7333063;19;154299;-13
2022/04/27 03:54:43;;;;;;;5.50;4.65;;;;;;;;;;7334131;19;153604;-13
2022/04/27 03:57:14;;;;;;;6.47;5.05;;;;;;;;;;7333655;19;161816;-14
2022/04/27 03:59:46;;;;;;;5.78;4.35;;;;;;;;;;7332093;19;162418;-13
2022/04/27 04:02:17;;;;;;;6.30;5.20;;;;;;;;;;7335046;19;154116;-13
2022/04/27 04:04:49;;;;;;;6.95;5.15;;;;;;;;;;7333638;19;153316;-12
2022/04/27 04:07:21;;;;;;;5.90;4.70;;;;;;;;;;7332086;19;162049;-13
2022/04/27 04:10:01;;;;;;;6.10;5.05;;;;;;;;;;7330792;19;162655;-13
2022/04/27 04:12:34;;;;;;;6.45;4.15;;;;;;;;;;7330662;19;154169;-13
2022/04/27 04:15:32;;;;;;;5.75;5.05;;;;;;;;;;7332008;19;153558;-16
2022/04/27 04:18:23;;;;;;;6.97;5.13;;;;;;;;;;7330737;19;162010;-20
2022/04/27 04:21:10;;;;;;;6.15;4.47;;;;;;;;;;7331500;19;162700;-13
2022/04/27 04:24:10;;;;;;;5.97;5.03;;;;;;;;;;7329797;19;154067;-13
2022/04/27 04:29:34;;;;;;;6.05;4.53;;;;;;;;;;7330775;19;161730;-12
2022/04/27 04:32:07;;;;;;;4.63;4.23;;;;;;;;;;7331156;19;162495;-13
2022/04/27 04:34:58;;;;;;;4.78;4.35;;;;;;;;;;7332271;19;153935;-12
2022/04/27 04:37:29;;;;;;;4.25;3.85;;;;;;;;;;7331552;19;153606;-13
2022/04/27 04:40:01;;;;;;;5.63;4.55;;;;;;;;;;7331296;19;161895;-13
2022/04/27 04:42:37;;;;;;;6.73;4.97;;;;;;;;;;7331064;19;162475;-13
2022/04/27 04:45:10;;;;;;;7.13;4.43;;;;;;;;;;7331358;19;154404;-13
2022/04/27 04:47:59;;;;;;;6.93;4.45;;;;;;;;;;7332442;19;153600;-16
2022/04/27 04:50:51;;;;;;;5.18;4.70;;;;;;;;;;7330101;19;162020;-13
2022/04/27 04:53:45;;;;;;;5.05;4.03;;;;;;;;;;7331101;19;162710;-14
2022/04/27 04:56:35;;;;;;;5.85;4.65;;;;;;;;;;7332454;19;154106;-13
2022/04/27 04:59:30;;;;;;;5.17;4.67;;;;;;;;;;7331134;19;153648;-13
2022/04/27 05:02:34;;;;;;;6.43;4.20;;;;;;;;;;7329867;19;162047;-13
2022/04/27 05:05:27;;;;;;;6.30;4.55;;;;;;;;;;7331620;19;162592;-14
2022/04/27 05:07:58;;;;;;;6.68;4.07;;;;;;;;;;7332065;19;154229;-13
2022/04/27 05:11:08;;;;;;;4.75;4.28;;;;;;;;;;7327141;19;153679;-14
2022/04/27 05:14:04;;;;;;;6.03;4.72;;;;;;;;;;7328430;19;162152;-13
2022/04/27 05:17:13;;;;;;;4.95;4.53;;;;;;;;;;7330110;19;162818;-13
2022/04/27 05:20:07;;;;;;;4.57;3.70;;;;;;;;;;7330597;19;154229;-14
2022/04/27 05:22:58;;;;;;;4.72;4.28;;;;;;;;;;7331430;19;153766;-13
2022/04/27 05:26:03;;;;;;;4.97;4.47;;;;;;;;;;7327020;19;161927;-13
2022/04/27 05:32:03;;;;;;;5.95;4.30;;;;;;;;;;7326766;19;154304;-14
2022/04/27 05:38:22;;;;;;;8.13;4.50;;;;;;;;;;7330900;19;162060;-13
2022/04/27 05:41:12;;;;;;;8.30;4.77;;;;;;;;;;7330580;19;162433;-13
2022/04/27 05:44:09;;;;;;;10.35;5.35;;;;;;;;;;7331478;19;154330;-13
2022/04/27 05:46:59;;;;;;;6.57;4.88;;;;;;;;;;7330303;19;153562;-13
2022/04/27 05:49:54;;;;;;;8.23;5.43;;;;;;;;;;7327817;19;162033;-13
2022/04/27 05:52:56;;;;;;;9.85;5.40;;;;;;;;;;7332471;19;162307;-12
2022/04/27 05:55:46;;;;;;;10.93;4.90;;;;;;;;;;7329630;19;154171;-13
2022/04/27 05:58:37;;;;;;;10.95;5.28;;;;;;;;;;7329948;19;153543;-13
2022/04/27 06:01:20;;;;;;;9.05;5.03;;;;;;;;;;7326604;19;162070;-13
2022/04/27 06:04:04;;;;;;;6.57;4.85;;;;;;;;;;7327915;19;162507;-13
2022/04/27 06:06:42;;;;;;;6.07;4.80;;;;;;;;;;7328371;19;154174;-13
2022/04/27 06:09:16;;;;;;;10.63;5.30;;;;;;;;;;7328765;19;153540;-13
2022/04/27 06:12:03;;;;;;;6.85;4.50;;;;;;;;;;7326138;19;162207;-13
2022/04/27 06:14:46;;;;;;;5.68;4.50;;;;;;;;;;7329292;19;162567;-13
2022/04/27 06:17:38;;;;;;;8.93;4.88;;;;;;;;;;7329523;19;156292;-12
2022/04/27 06:20:12;;;;;;;17.52;5.20;;;;;;;;;;7329492;19;153592;-15
2022/04/27 06:22:44;;;;;;;9.00;4.95;;;;;;;;;;7327971;19;161818;-12
2022/04/27 06:25:15;;;;;;;6.47;4.38;;;;;;;;;;7327611;19;162752;-14
2022/04/27 06:28:11;;;;;;;11.57;4.78;;;;;;;;;;7330005;19;154332;-13
2022/04/27 06:30:42;;;;;;;8.57;4.63;;;;;;;;;;7327650;19;153613;-13
2022/04/27 06:33:14;;;;;;;8.68;4.32;;;;;;;;;;7326171;19;161820;-14
2022/04/27 06:35:46;;;;;;;9.02;4.28;;;;;;;;;;7329192;19;162378;-14
2022/04/27 06:38:19;;;;;;;7.57;4.32;;;;;;;;;;7334580;19;154228;-14
2022/04/27 06:41:12;;;;;;;7.20;4.40;;;;;;;;;;7334301;19;153590;-13
2022/04/27 06:44:06;;;;;;;10.40;4.75;;;;;;;;;;7335350;19;161893;-13
2022/04/27 06:46:56;;;;;;;;;;;;;;;;;;7335341;19;162560;-14
2022/04/27 06:49:45;;;;;;;5.70;3.63;;;;;;;;;;7335540;19;154642;-14
2022/04/27 06:52:35;;;;;;;7.10;4.28;;;;;;;;;;7333452;19;153521;-14
2022/04/27 06:55:24;;;;;;;8.90;3.97;;;;;;;;;;7334842;19;161889;-14
2022/04/27 06:58:14;;;;;;;10.63;4.35;;;;;;;;;;7334866;19;162595;-14
2022/04/27 07:00:53;;;;;;;7.20;4.25;;;;;;;;;;7333817;19;153839;-13
2022/04/27 07:03:24;;;;;;;7.80;3.75;;;;;;;;;;7334948;19;154056;-19
2022/04/27 07:05:56;;;;;;;7.13;3.83;;;;;;;;;;7334303;19;161823;-14
2022/04/27 07:08:27;;;;;;;8.32;4.25;;;;;;;;;;7333104;19;162268;-14
2022/04/27 07:10:59;;;;;;;7.22;3.92;;;;;;;;;;7334904;19;154100;-14
2022/04/27 07:13:30;;;;;;;5.82;4.10;;;;;;;;;;7334519;19;153540;-14
2022/04/27 07:16:05;;;;;;;7.72;4.30;;;;;;;;;;7334273;19;161986;-13
2022/04/27 07:18:36;;;;;;;6.05;4.10;;;;;;;;;;7334013;19;162686;-13
2022/04/27 07:21:08;;;;;;;6.03;3.58;;;;;;;;;;7334650;19;154050;-14
2022/04/27 07:23:41;;;;;;;5.78;3.83;;;;;;;;;;7334490;19;153600;-14
2022/04/27 07:26:12;;;;;;;5.78;3.70;;;;;;;;;;7334121;19;161844;-13
2022/04/27 07:28:43;;;;;;;6.28;3.90;;;;;;;;;;7332727;19;162407;-13
2022/04/27 07:31:17;;;;;;;6.78;4.18;;;;;;;;;;7334109;19;154003;-13
2022/04/27 07:33:48;;;;;;;6.82;3.90;;;;;;;;;;7332575;19;153582;-14
2022/04/27 07:36:20;;;;;;;6.50;4.47;;;;;;;;;;7333864;19;162023;-13
2022/04/27 07:38:51;;;;;;;5.65;3.47;;;;;;;;;;7333620;19;162621;-13
2022/04/27 07:41:23;;;;;;;3.53;3.22;;;;;;;;;;7334034;19;154088;-13
2022/04/27 07:43:54;;;;;;;3.95;3.25;;;;;;;;;;7333813;19;153253;-13
2022/04/27 07:46:28;;;;;;;6.05;3.85;;;;;;;;;;7334677;19;161811;-13
2022/04/27 07:48:59;;;;;;;5.13;3.83;;;;;;;;;;7331126;19;162480;-12
2022/04/27 07:51:31;;;;;;;5.93;3.42;;;;;;;;;;7333739;19;154060;-13
2022/04/27 07:54:02;;;;;;;5.78;3.65;;;;;;;;;;7333810;19;153825;-13
2022/04/27 07:56:33;;;;;;;4.25;3.13;;;;;;;;;;7332065;19;161909;-13
2022/04/27 07:59:04;;;;;;;6.15;3.65;;;;;;;;;;7336567;19;162357;-13
2022/04/27 08:01:38;;;;;;;6.20;3.97;;;;;;;;;;7333714;19;153999;-13
2022/04/27 08:04:10;;;;;;;5.97;3.60;;;;;;;;;;7333254;19;153492;-13
2022/04/27 08:06:41;;;;;;;6.78;3.38;;;;;;;;;;7333045;19;161949;-13
2022/04/27 08:09:12;;;;;;;4.70;3.47;;;;;;;;;;7332815;19;162589;-13
2022/04/27 08:11:44;;;;;;;5.00;3.05;;;;;;;;;;7333486;19;154131;-13
2022/04/27 08:14:15;;;;;;;6.75;3.65;;;;;;;;;;7333198;19;155644;-13
2022/04/27 08:16:49;;;;;;;5.15;3.70;;;;;;;;;;7332431;19;162024;-14
2022/04/27 08:19:20;;;;;;;7.07;3.53;;;;;;;;;;7332622;19;162770;-13
2022/04/27 08:21:51;;;;;;;6.65;3.83;;;;;;;;;;7333747;19;154312;-13
2022/04/27 08:24:24;;;;;;;6.88;3.40;;;;;;;;;;7331958;19;153742;-14
2022/04/27 08:26:56;;;;;;;4.60;3.72;;;;;;;;;;7332715;19;162123;-14
2022/04/27 08:29:27;;;;;;;6.43;3.10;;;;;;;;;;7331543;19;162566;-14
2022/04/27 08:32:01;;;;;;;13.00;3.47;;;;;;;;;;7331739;19;154091;-15
2022/04/27 08:34:32;;;;;;;9.57;3.55;;;;;;;;;;7333476;19;153708;-13
2022/04/27 08:37:04;;;;;;;8.23;3.92;;;;;;;;;;7329438;19;161916;-13
2022/04/27 08:39:35;;;;;;;8.00;3.33;;;;;;;;;;7334255;19;162540;-12
2022/04/27 08:42:09;;;;;;;10.95;3.38;;;;;;;;;;7335887;19;154520;-13
2022/04/27 08:44:40;;;;;;;11.88;3.45;;;;;;;;;;7335329;19;153543;-12
2022/04/27 08:47:14;;;;;;;5.18;3.13;;;;;;;;;;7335686;19;162131;-13
2022/04/27 08:49:46;;;;;;;3.40;2.75;;;;;;;;;;7332743;19;162533;-13
2022/04/27 08:52:18;;;;;;;5.07;2.53;;;;;;;;;;7333976;19;154047;-13
2022/04/27 08:54:51;;;;;;;7.18;2.80;;;;;;;;;;7335204;19;153320;-13
2022/04/27 08:57:23;;;;;;;5.88;3.08;;;;;;;;;;7334320;19;161860;-13
2022/04/27 08:59:54;;;;;;;7.68;3.28;;;;;;;;;;7331069;19;163031;-13
2022/04/27 09:02:29;;;;;;;6.60;2.70;;;;;;;;;;7332932;19;154106;-13
2022/04/27 09:05:13;;;;;;;5.35;2.63;;;;;;;;;;7335182;19;153587;-13
2022/04/27 09:07:46;;;;;;;4.43;2.50;;;;;;;;;;7332290;19;161964;-13
2022/04/27 09:10:18;;;;;;;;;;;;;;;;;;7333924;19;162350;-13
2022/04/27 09:12:51;;;;;;;5.43;2.70;;;;;;;;;;7334472;19;153935;-14
2022/04/27 09:15:24;;;;;;;7.63;2.50;;;;;;;;;;7335512;19;153614;-13
2022/04/27 09:20:50;;;;;;;4.30;2.95;;;;;;;;;;7333812;19;162441;-13
2022/04/27 09:23:24;;;;;;;3.60;2.40;;;;;;;;;;7335588;19;154032;-13
2022/04/27 09:25:56;;;;;;;5.10;2.88;;;;;;;;;;7332924;19;153551;-13
2022/04/27 09:28:36;;;;;;;5.60;3.15;;;;;;;;;;7333633;19;162166;-12
2022/04/27 09:31:07;;;;;;;7.68;2.88;;;;;;;;;;7327735;19;162333;-12
2022/04/27 09:33:42;;;;;;;5.80;2.72;;;;;;;;;;7331246;19;154116;-13
2022/04/27 09:36:24;;;;;;;4.22;3.08;;;;;;;;;;7334506;19;153519;-12
2022/04/27 09:38:56;;;;;;;5.00;2.60;;;;;;;;;;7332809;19;161756;-13
2022/04/27 09:41:50;;;;;;;5.97;2.92;;;;;;;;;;7334019;19;162366;-13
2022/04/27 09:44:32;;;;;;;4.13;2.60;;;;;;;;;;7328681;19;154326;-13
2022/04/27 09:47:05;;;;;;;6.43;2.78;;;;;;;;;;7330553;19;153633;-13
2022/04/27 09:49:41;;;;;;;4.40;2.63;;;;;;;;;;7333306;19;162070;-13
2022/04/27 09:52:16;;;;;;;3.97;2.53;;;;;;;;;;7330244;19;162960;-13
2022/04/27 09:54:49;;;;;;;3.95;2.67;;;;;;;;;;7329549;19;154067;-12
2022/04/27 09:57:22;;;;;;;3.90;2.92;;;;;;;;;;7332326;19;153520;-13
2022/04/27 09:59:53;;;;;;;4.68;3.17;;;;;;;;;;7333882;19;162088;-20
2022/04/27 10:02:30;;;;;;;4.55;2.90;;;;;;;;;;7332607;19;162387;-20
2022/04/27 10:05:05;;;;;;;3.55;2.30;;;;;;;;;;7333527;19;154266;-13
2022/04/27 10:07:38;;;;;;;4.55;2.20;;;;;;;;;;7326777;19;153939;-13
2022/04/27 10:10:11;;;;;;;2.47;2.28;;;;;;;;;;7330113;19;161913;-14
2022/04/27 10:12:42;;;;;;;3.85;2.40;;;;;;;;;;7330117;19;162585;-13
2022/04/27 10:15:13;;;;;;;3.75;2.30;;;;;;;;;;7330590;19;154110;-13
2022/04/27 10:17:45;;;;;;;4.20;2.22;;;;;;;;;;7330442;19;153560;-13
2022/04/27 10:20:32;;;;;;;4.53;2.38;;;;;;;;;;7327916;19;161938;-13
2022/04/27 10:23:22;;;;;;;3.85;2.20;;;;;;;;;;7332058;19;162486;-13
2022/04/27 10:26:12;;;;;;;3.08;2.20;;;;;;;;;;7330522;19;154196;-13
2022/04/27 10:28:51;;;;;;;2.17;2.08;;;;;;;;;;7331652;19;153770;-14
2022/04/27 10:31:52;;;;;;;3.75;2.30;;;;;;;;;;7332778;19;162057;-13
2022/04/27 10:34:25;;;;;;;2.47;2.22;;;;;;;;;;7328292;19;162344;-13
2022/04/27 10:37:00;;;;;;;2.60;2.40;;;;;;;;;;7332145;19;154036;-13
2022/04/27 10:39:32;;;;;;;2.85;2.38;;;;;;;;;;7329313;19;153574;-14
2022/04/27 10:42:34;;;;;;;3.67;2.75;;;;;;;;;;7327030;19;161979;-14
2022/04/27 10:45:10;;;;;;;2.88;2.28;;;;;;;;;;7330422;19;162387;-13
2022/04/27 10:47:45;;;;;;;2.90;2.15;;;;;;;;;;7330252;19;154208;-13
2022/04/27 10:50:36;;;;;;;3.15;2.28;;;;;;;;;;7330824;19;153578;-13
2022/04/27 10:53:26;;;;;;;2.40;1.90;;;;;;;;;;7326610;19;162111;-13
2022/04/27 10:56:00;;;;;;;3.47;2.28;;;;;;;;;;7328424;19;162523;-13
2022/04/27 10:58:42;;;;;;;7.32;1.98;;;;;;;;;;7329929;19;154056;-13
2022/04/27 11:01:20;;;;;;;5.63;2.00;;;;;;;;;;7331921;19;153539;-13
2022/04/27 11:04:02;;;;;;;2.65;2.22;;;;;;;;;;7329976;19;161796;-14
2022/04/27 11:07:10;;;;;;;1.75;1.55;;;;;;;;;;7330320;19;162533;-14
2022/04/27 11:10:12;;;;;;;4.57;2.13;;;;;;;;;;7329774;19;154072;-13
2022/04/27 11:12:46;;;;;;;11.60;2.20;;;;;;;;;;7330504;19;153682;-13
2022/04/27 11:15:21;;;;;;;4.15;2.55;;;;;;;;;;7327900;19;161995;-13
2022/04/27 11:18:00;;;;;;;2.55;2.08;;;;;;;;;;7328081;19;162416;-13
2022/04/27 11:20:36;;;;;;;5.57;2.42;;;;;;;;;;7329619;19;154002;-14
2022/04/27 11:23:09;;;;;;;3.53;2.05;;;;;;;;;;7335131;19;153868;-13
2022/04/27 11:25:43;;;;;;;3.25;2.17;;;;;;;;;;7337482;19;161851;-13
2022/04/27 11:28:15;;;;;;;3.72;2.22;;;;;;;;;;7335085;19;162372;-13
2022/04/27 11:30:47;;;;;;;2.45;2.00;;;;;;;;;;7337332;19;154207;-13
2022/04/27 11:33:21;;;;;;;3.17;2.07;;;;;;;;;;7336577;19;153690;-13
2022/04/27 11:35:52;;;;;;;2.25;1.98;;;;;;;;;;7334316;19;161858;-14
2022/04/27 11:38:24;;;;;;;2.25;1.92;;;;;;;;;;7332792;19;162377;-14
2022/04/27 11:40:57;;;;;;;3.63;1.90;;;;;;;;;;7337060;19;154272;-13
2022/04/27 11:43:32;;;;;;;4.03;2.08;;;;;;;;;;7338256;19;153724;-13
2022/04/27 11:46:03;;;;;;;2.10;1.88;;;;;;;;;;7334955;19;161975;-14
2022/04/27 11:48:34;;;;;;;2.80;1.77;;;;;;;;;;7336068;19;162418;-13
2022/04/27 11:51:07;;;;;;;2.67;1.90;;;;;;;;;;7337082;19;154000;-13
2022/04/27 11:53:47;;;;;;;2.00;1.75;;;;;;;;;;7334649;19;153539;-13
2022/04/27 11:56:22;;;;;;;1.90;1.80;;;;;;;;;;7334551;19;161892;-13
2022/04/27 11:58:53;;;;;;;3.45;2.00;;;;;;;;;;7332546;19;162658;-13
2022/04/27 12:01:25;;;;;;;4.47;1.88;;;;;;;;;;7336401;19;154082;-12
2022/04/27 12:03:57;;;;;;;3.83;1.80;;;;;;;;;;7332254;19;153675;-13
2022/04/27 12:06:29;;;;;;;4.30;2.03;;;;;;;;;;7332578;19;161988;-14
2022/04/27 12:09:02;;;;;;;3.40;1.87;;;;;;;;;;7335036;19;162698;-13
2022/04/27 12:11:36;;;;;;;2.65;1.98;;;;;;;;;;7334401;19;154193;-13
2022/04/27 12:14:09;;;;;;;2.08;1.88;;;;;;;;;;7333898;19;153677;-13
2022/04/27 12:16:43;;;;;;;4.32;2.08;;;;;;;;;;7331779;19;162006;-13
2022/04/27 12:19:17;;;;;;;3.47;1.83;;;;;;;;;;7335349;19;163034;-13
2022/04/27 12:21:48;;;;;;;4.78;2.08;;;;;;;;;;7333890;19;154408;-13
2022/04/27 12:24:20;;;;;;;2.38;1.67;;;;;;;;;;7334846;19;153749;-13
2022/04/27 12:26:54;;;;;;;3.55;2.03;;;;;;;;;;7334436;19;161797;-13
2022/04/27 12:29:29;;;;;;;2.50;1.75;;;;;;;;;;7336431;19;162603;-13
2022/04/27 12:32:00;;;;;;;3.33;1.83;;;;;;;;;;7333970;19;154377;-13
2022/04/27 12:37:32;;;;;;;4.20;2.13;;;;;;;;;;7335856;19;161815;-13
2022/04/27 12:40:16;;;;;;;2.78;1.88;;;;;;;;;;7331556;19;162333;-13
2022/04/27 12:43:04;;;;;;;2.42;1.67;;;;;;;;;;7335444;19;154271;-13
2022/04/27 12:45:37;;;;;;;2.67;1.85;;;;;;;;;;7332791;19;154286;-13
2022/04/27 12:48:09;;;;;;;2.58;2.20;;;;;;;;;;7333320;19;161969;-13
2022/04/27 12:50:49;;;;;;;3.70;1.80;;;;;;;;;;7333632;19;162643;-19
2022/04/27 12:53:21;;;;;;;3.45;2.05;;;;;;;;;;7334318;19;154151;-20
2022/04/27 12:56:03;;;;;;;4.20;2.10;;;;;;;;;;7331524;19;153696;-14
2022/04/27 12:58:38;;;;;;;3.33;1.83;;;;;;;;;;7334607;19;162053;-12
2022/04/27 13:01:09;;;;;;;2.95;2.00;;;;;;;;;;7333176;19;162357;-14
2022/04/27 13:03:41;;;;;;;2.50;1.83;;;;;;;;;;7334420;19;154183;-14
2022/04/27 13:06:13;;;;;;;2.78;1.92;;;;;;;;;;7333120;19;153553;-13
2022/04/27 13:08:44;;;;;;;3.25;1.88;;;;;;;;;;7334166;19;162035;-14
2022/04/27 13:14:02;;;;;;;3.22;1.90;;;;;;;;;;7332803;19;154116;-15
2022/04/27 13:16:33;;;;;;;2.10;1.60;;;;;;;;;;7332729;19;154067;-13
2022/04/27 13:19:05;;;;;;;2.33;1.80;;;;;;;;;;7334733;19;162020;-14
2022/04/27 13:21:36;;;;;;;40.47;7.78;;;;;;;;;;7331571;19;162577;-14
2022/04/27 13:24:08;;;;;;;100.82;23.83;;;;;;;;;;7332777;19;154055;-14
2022/04/27 13:26:40;;;;;;;149.37;43.67;;;;;;;;;;7331349;19;154822;-13
2022/04/27 13:29:14;;;;;;;166.00;47.23;;;;;;;;;;7334922;19;161905;-13
2022/04/27 13:31:49;;;;;;;176.60;49.97;;;;;;;;;;7331245;19;162754;-14
2022/04/27 13:34:22;;;;;;;122.38;37.08;;;;;;;;;;7328491;19;154189;-12
2022/04/27 13:36:54;;;;;;;157.13;44.05;;;;;;;;;;7327761;19;153927;-13
2022/04/27 13:39:26;;;;;;;141.23;41.43;;;;;;;;;;7332103;19;161854;-14
2022/04/27 13:41:59;;;;;;;139.98;42.97;;;;;;;;;;7331386;19;162586;-15
2022/04/27 13:44:33;;;;;;;149.15;41.33;;;;;;;;;;7331471;19;154079;-14
2022/04/27 13:47:06;;;;;;;123.25;40.30;;;;;;;;;;7326515;19;153891;-13
2022/04/27 13:49:38;;;;;;;133.15;39.05;;;;;;;;;;7330389;19;161935;-14
2022/04/27 13:52:10;;;;;;;118.35;39.35;;;;;;;;;;7330256;19;162559;-14
2022/04/27 13:54:41;;;;;;;138.30;40.25;;;;;;;;;;7330544;19;154024;-13
2022/04/27 13:57:13;;;;;;;127.70;38.80;;;;;;;;;;7328631;19;153535;-13
2022/04/27 13:59:47;;;;;;;125.47;38.70;;;;;;;;;;7330039;19;161839;-14
2022/04/27 14:02:19;;;;;;;117.82;37.92;;;;;;;;;;7330197;19;162106;-14
2022/04/27 14:04:53;;;;;;;126.72;38.70;;;;;;;;;;7330863;19;154162;-13
2022/04/27 14:07:24;;;;;;;103.93;35.17;;;;;;;;;;7330070;19;153678;-13
2022/04/27 14:09:56;;;;;;;108.35;35.92;;;;;;;;;;7329537;19;162200;-13
2022/04/27 14:15:19;;;;;;;110.72;35.40;;;;;;;;;;7330081;19;154102;-13
2022/04/27 14:20:35;;;;;;;110.47;37.17;;;;;;;;;;7329325;19;161971;-14
2022/04/27 14:23:07;;;;;;;95.75;34.95;;;;;;;;;;7327978;19;162383;-18
2022/04/27 14:25:40;;;;;;;103.85;37.05;;;;;;;;;;7329667;19;153994;-13
2022/04/27 14:28:14;;;;;;;99.68;33.13;;;;;;;;;;7329472;19;153671;-13
2022/04/27 14:30:49;;;;;;;100.05;33.20;;;;;;;;;;7328644;19;162069;-20
2022/04/27 14:33:22;;;;;;;93.75;35.45;;;;;;;;;;7327478;19;162430;-15
2022/04/27 14:35:53;;;;;;;;;;;;;;;;;;7329574;19;154199;-14
2022/04/27 14:38:24;;;;;;;96.97;34.78;;;;;;;;;;7326464;19;153327;-14
2022/04/27 14:40:56;;;;;;;89.88;33.53;;;;;;;;;;7328759;19;162083;-13
2022/04/27 14:43:29;;;;;;;89.55;31.30;;;;;;;;;;7328606;19;162369;-25
2022/04/27 14:46:03;;;;;;;93.53;32.55;;;;;;;;;;7327877;19;154184;-13
2022/04/27 14:48:40;;;;;;;94.03;33.08;;;;;;;;;;7328538;19;153686;-12
2022/04/27 14:51:12;;;;;;;91.63;32.28;;;;;;;;;;7328350;19;161779;-13
2022/04/27 14:53:44;;;;;;;91.97;30.90;;;;;;;;;;7328175;19;162611;-14
2022/04/27 14:56:16;;;;;;;85.65;30.70;;;;;;;;;;7328525;19;154109;-13
2022/04/27 14:58:47;;;;;;;81.60;31.60;;;;;;;;;;7333782;19;153669;-14
2022/04/27 15:01:22;;;;;;;97.43;32.83;;;;;;;;;;7335080;19;161846;-14
2022/04/27 15:03:54;;;;;;;81.95;30.55;;;;;;;;;;7334880;19;163059;-14
2022/04/27 15:06:26;;;;;;;92.35;31.90;;;;;;;;;;7335056;19;154135;-14
2022/04/27 15:08:57;;;;;;;90.50;30.25;;;;;;;;;;7335179;19;153610;-14
2022/04/27 15:11:32;;;;;;;78.85;29.33;;;;;;;;;;7334709;19;161945;-14
2022/04/27 15:14:04;;;;;;;93.03;33.53;;;;;;;;;;7334647;19;162565;-15
2022/04/27 15:16:39;;;;;;;73.65;29.05;;;;;;;;;;7334560;19;154252;-15
2022/04/27 15:19:11;;;;;;;81.63;28.48;;;;;;;;;;7334633;19;153640;-14
2022/04/27 15:24:28;;;;;;;84.70;30.27;;;;;;;;;;7334113;19;162345;-13
2022/04/27 15:27:03;;;;;;;71.70;28.00;;;;;;;;;;7334520;19;154242;-14
2022/04/27 15:29:37;;;;;;;77.97;30.42;;;;;;;;;;7332989;19;153677;-14
2022/04/27 15:32:14;;;;;;;70.22;27.90;;;;;;;;;;7333715;19;161967;-14
2022/04/27 15:34:49;;;;;;;85.68;29.90;;;;;;;;;;7332664;19;161916;-15
2022/04/27 15:37:20;;;;;;;79.28;29.85;;;;;;;;;;7337649;19;154277;-14
2022/04/27 15:39:52;;;;;;;74.40;27.23;;;;;;;;;;7334195;19;154280;-14
2022/04/27 15:42:23;;;;;;;79.22;28.70;;;;;;;;;;7333647;19;161959;-14
2022/04/27 15:44:55;;;;;;;71.63;27.80;;;;;;;;;;7333505;19;162621;-17
2022/04/27 15:47:29;;;;;;;74.03;28.42;;;;;;;;;;7333841;19;154104;-15